createdAt,value
2023-05-24T00:01:16.470Z,14.60
2023-05-24T00:03:46.976Z,14.00
2023-05-24T00:06:17.043Z,15.85
2023-05-24T00:08:45.022Z,14.90
2023-05-24T00:11:13.393Z,17.85
2023-05-24T00:13:41.338Z,15.70
2023-05-24T00:16:09.572Z,14.00
2023-05-24T00:18:40.982Z,17.55
2023-05-24T00:21:09.419Z,13.40
2023-05-24T00:23:38.650Z,15.25
2023-05-24T00:26:07.331Z,16.05
2023-05-24T00:28:35.410Z,14.73
2023-05-24T00:31:03.681Z,15.38
2023-05-24T00:33:31.620Z,17.58
2023-05-24T00:36:01.222Z,16.60
2023-05-24T00:38:31.599Z,16.25
2023-05-24T00:41:01.377Z,16.95
2023-05-24T00:43:29.298Z,16.33
2023-05-24T00:46:19.084Z,21.50
2023-05-24T00:48:47.591Z,16.20
2023-05-24T00:51:17.305Z,15.05
2023-05-24T00:53:47.338Z,16.38
2023-05-24T00:56:16.614Z,16.65
2023-05-24T00:58:45.038Z,16.15
2023-05-24T01:01:27.307Z,20.85
2023-05-24T01:03:57.261Z,16.80
2023-05-24T01:06:28.071Z,16.80
2023-05-24T01:09:08.650Z,16.35
2023-05-24T01:11:44.350Z,16.20
2023-05-24T01:14:20.103Z,15.65
2023-05-24T01:16:52.646Z,18.42
2023-05-24T01:19:43.498Z,16.45
2023-05-24T01:22:29.307Z,17.80
2023-05-24T01:25:04.691Z,20.13
2023-05-24T01:27:35.518Z,17.48
2023-05-24T01:30:04.595Z,20.20
2023-05-24T01:32:33.273Z,22.85
2023-05-24T01:35:01.180Z,20.45
2023-05-24T01:37:29.357Z,29.77
2023-05-24T01:39:59.100Z,23.23
2023-05-24T01:42:28.943Z,29.65
2023-05-24T01:45:04.987Z,27.63
2023-05-24T01:47:43.392Z,28.60
2023-05-24T01:50:18.416Z,32.05
2023-05-24T01:52:47.375Z,37.20
2023-05-24T01:55:16.672Z,38.75
2023-05-24T01:57:46.185Z,46.70
2023-05-24T02:00:17.416Z,41.28
2023-05-24T02:02:46.031Z,50.22
2023-05-24T02:05:14.105Z,55.53
2023-05-24T02:07:42.623Z,54.65
2023-05-24T02:10:11.244Z,60.63
2023-05-24T02:12:39.460Z,65.50
2023-05-24T02:15:08.424Z,71.18
2023-05-24T02:17:38.155Z,66.13
2023-05-24T02:20:07.190Z,68.82
2023-05-24T02:22:35.514Z,64.45
2023-05-24T02:25:03.416Z,60.95
2023-05-24T02:27:32.063Z,69.65
2023-05-24T02:30:00.193Z,69.85
2023-05-24T02:32:28.397Z,75.03
2023-05-24T02:34:59.137Z,75.53
2023-05-24T02:37:27.309Z,77.03
2023-05-24T02:39:55.211Z,84.28
2023-05-24T02:42:23.353Z,85.50
2023-05-24T02:44:52.576Z,80.32
2023-05-24T02:47:20.788Z,81.00
2023-05-24T02:49:48.892Z,81.90
2023-05-24T02:52:21.613Z,80.22
2023-05-24T02:54:49.764Z,79.78
2023-05-24T02:57:18.107Z,84.80
2023-05-24T02:59:46.152Z,85.95
2023-05-24T03:02:14.830Z,88.20
2023-05-24T03:04:42.874Z,89.28
2023-05-24T03:07:11.675Z,86.18
2023-05-24T03:09:40.914Z,88.57
2023-05-24T03:12:09.485Z,82.05
2023-05-24T03:14:37.385Z,88.03
2023-05-24T03:17:06.060Z,91.18
2023-05-24T03:19:34.001Z,85.28
2023-05-24T03:22:02.219Z,85.32
2023-05-24T03:24:30.134Z,89.15
2023-05-24T03:27:00.010Z,87.20
2023-05-24T03:29:27.941Z,84.65
2023-05-24T03:31:56.204Z,92.88
2023-05-24T03:34:24.193Z,93.60
2023-05-24T03:36:52.787Z,90.55
2023-05-24T03:39:20.781Z,90.25
2023-05-24T03:41:49.006Z,93.93
2023-05-24T03:44:18.298Z,88.00
2023-05-24T03:46:46.485Z,86.18
2023-05-24T03:49:14.402Z,82.75
2023-05-24T03:51:42.593Z,83.85
2023-05-24T03:54:10.516Z,89.93
2023-05-24T03:56:38.769Z,86.15
2023-05-24T03:59:06.685Z,82.28
2023-05-24T04:01:36.932Z,90.82
2023-05-24T04:04:05.121Z,82.00
2023-05-24T04:06:33.341Z,81.30
2023-05-24T04:09:02.950Z,77.45
2023-05-24T04:11:32.359Z,80.28
2023-05-24T04:14:01.243Z,76.68
2023-05-24T04:16:31.758Z,71.90
2023-05-24T04:19:02.199Z,73.30
2023-05-24T04:21:30.683Z,68.60
2023-05-24T04:24:00.316Z,70.78
2023-05-24T04:26:29.763Z,71.00
2023-05-24T04:28:58.249Z,74.78
2023-05-24T04:31:29.359Z,74.32
2023-05-24T04:33:58.848Z,76.18
2023-05-24T04:36:28.836Z,78.22
2023-05-24T04:39:02.952Z,84.03
2023-05-24T04:41:32.301Z,77.95
2023-05-24T04:44:00.612Z,82.55
2023-05-24T04:46:29.427Z,82.70
2023-05-24T04:48:57.471Z,90.25
2023-05-24T04:51:25.721Z,83.38
2023-05-24T04:53:54.989Z,76.03
2023-05-24T04:56:23.202Z,82.50
2023-05-24T04:58:51.450Z,87.63
2023-05-24T05:01:19.799Z,91.65
2023-05-24T05:03:47.790Z,90.05
2023-05-24T05:06:16.049Z,92.60
2023-05-24T05:08:44.162Z,89.07
2023-05-24T05:11:14.920Z,97.25
2023-05-24T05:13:42.825Z,95.97
2023-05-24T05:16:11.039Z,94.90
2023-05-24T05:18:39.298Z,104.10
2023-05-24T05:21:07.933Z,102.93
2023-05-24T05:23:36.322Z,114.00
2023-05-24T05:26:04.694Z,94.70
2023-05-24T05:28:34.040Z,105.18
2023-05-24T05:31:02.231Z,106.20
2023-05-24T05:33:32.047Z,106.15
2023-05-24T05:36:00.957Z,103.95
2023-05-24T05:38:28.889Z,96.07
2023-05-24T05:40:57.088Z,106.60
2023-05-24T05:43:25.226Z,91.10
2023-05-24T05:45:54.850Z,102.07
2023-05-24T05:48:22.796Z,104.35
2023-05-24T05:50:51.118Z,96.25
2023-05-24T05:53:19.026Z,93.20
2023-05-24T05:55:47.479Z,89.60
2023-05-24T05:58:15.567Z,92.65
2023-05-24T06:00:43.970Z,91.57
2023-05-24T06:03:13.831Z,87.10
2023-05-24T06:05:43.038Z,87.30
2023-05-24T06:08:10.939Z,87.10
2023-05-24T06:10:39.139Z,87.82
2023-05-24T06:13:07.636Z,89.35
2023-05-24T06:15:35.830Z,84.38
2023-05-24T06:18:03.815Z,93.50
2023-05-24T06:20:33.445Z,83.60
2023-05-24T06:23:01.540Z,80.95
2023-05-24T06:25:31.026Z,86.90
2023-05-24T06:27:58.925Z,79.85
2023-05-24T06:30:27.507Z,75.82
2023-05-24T06:32:56.319Z,75.63
2023-05-24T06:35:24.574Z,75.50
2023-05-24T06:37:53.906Z,75.05
2023-05-24T06:40:22.496Z,75.85
2023-05-24T06:42:50.459Z,68.55
2023-05-24T06:45:18.517Z,64.07
2023-05-24T06:47:47.434Z,66.22
2023-05-24T06:50:15.466Z,71.70
2023-05-24T06:52:44.101Z,61.25
2023-05-24T06:55:13.777Z,61.00
2023-05-24T06:57:41.937Z,59.17
2023-05-24T07:00:12.652Z,48.88
2023-05-24T07:02:41.300Z,44.13
2023-05-24T07:05:12.177Z,50.15
2023-05-24T07:07:40.643Z,52.35
2023-05-24T07:10:10.601Z,57.33
2023-05-24T07:12:40.181Z,53.28
2023-05-24T07:15:09.778Z,58.10
2023-05-24T07:17:38.161Z,53.72
2023-05-24T07:20:10.446Z,60.10
2023-05-24T07:22:38.741Z,66.55
2023-05-24T07:25:07.360Z,59.97
2023-05-24T07:27:36.115Z,61.65
2023-05-24T07:30:16.345Z,69.68
2023-05-24T07:32:48.354Z,73.32
2023-05-24T07:35:16.836Z,72.75
2023-05-24T07:37:45.013Z,74.07
2023-05-24T07:40:13.207Z,70.20
2023-05-24T07:42:41.806Z,75.55
2023-05-24T07:45:11.649Z,75.57
2023-05-24T07:47:39.891Z,78.35
2023-05-24T07:50:08.496Z,74.28
2023-05-24T07:52:38.707Z,74.93
2023-05-24T07:55:07.322Z,75.57
2023-05-24T07:57:35.874Z,82.70
2023-05-24T08:00:10.318Z,77.93
2023-05-24T08:02:39.933Z,60.65
2023-05-24T08:05:09.385Z,56.65
2023-05-24T08:07:37.560Z,55.72
2023-05-24T08:10:06.764Z,59.67
2023-05-24T08:12:35.098Z,50.28
2023-05-24T08:15:03.300Z,47.55
2023-05-24T08:17:31.783Z,45.95
2023-05-24T08:20:01.196Z,38.75
2023-05-24T08:22:29.413Z,40.95
2023-05-24T08:24:57.499Z,35.35
2023-05-24T08:27:28.678Z,42.53
2023-05-24T08:29:57.208Z,41.20
2023-05-24T08:32:25.732Z,48.70
2023-05-24T08:35:03.524Z,48.70
2023-05-24T08:37:40.602Z,48.42
2023-05-24T08:40:10.110Z,48.05
2023-05-24T08:42:39.585Z,44.53
2023-05-24T08:45:12.046Z,41.70
2023-05-24T08:47:40.658Z,46.42
2023-05-24T08:50:09.642Z,44.55
2023-05-24T08:52:38.215Z,45.40
2023-05-24T08:55:08.604Z,56.58
2023-05-24T08:57:39.665Z,47.85
2023-05-24T09:00:09.929Z,54.17
2023-05-24T09:02:39.600Z,43.22
2023-05-24T09:05:11.262Z,41.53
2023-05-24T09:07:39.679Z,34.05
2023-05-24T09:10:10.482Z,40.17
2023-05-24T09:12:39.891Z,33.75
2023-05-24T09:15:09.919Z,33.17
2023-05-24T09:17:40.655Z,30.88
2023-05-24T09:20:10.912Z,38.10
2023-05-24T09:22:42.508Z,29.25
2023-05-24T09:25:14.737Z,25.88
2023-05-24T09:27:47.442Z,30.35
2023-05-24T09:30:16.974Z,34.60
2023-05-24T09:32:56.604Z,39.53
2023-05-24T09:35:26.699Z,36.97
2023-05-24T09:37:57.236Z,39.85
2023-05-24T09:40:27.468Z,40.13
2023-05-24T09:43:07.458Z,38.22
2023-05-24T09:45:40.129Z,43.47
2023-05-24T09:48:12.622Z,46.47
2023-05-24T09:50:41.302Z,51.70
2023-05-24T09:53:09.775Z,53.30
2023-05-24T09:55:39.128Z,47.75
2023-05-24T09:58:09.207Z,69.03
2023-05-24T10:00:39.945Z,51.47
2023-05-24T10:03:10.917Z,49.30
2023-05-24T10:05:39.896Z,54.58
2023-05-24T10:08:09.428Z,53.80
2023-05-24T10:10:39.116Z,57.40
2023-05-24T10:13:07.598Z,59.50
2023-05-24T10:15:36.802Z,53.00
2023-05-24T10:18:09.899Z,57.08
2023-05-24T10:20:41.273Z,50.13
2023-05-24T10:23:11.360Z,55.55
2023-05-24T10:25:51.088Z,54.92
2023-05-24T10:28:19.695Z,53.97
2023-05-24T10:30:53.843Z,50.97
2023-05-24T10:33:23.504Z,50.53
2023-05-24T10:35:52.402Z,52.53
2023-05-24T10:38:23.119Z,53.97
2023-05-24T10:40:52.909Z,47.80
2023-05-24T10:43:22.750Z,43.95
2023-05-24T10:45:51.906Z,50.20
2023-05-24T10:48:37.598Z,44.53
2023-05-24T10:51:38.749Z,50.95
2023-05-24T10:54:14.714Z,45.53
2023-05-24T10:56:45.899Z,45.83
2023-05-24T10:59:24.741Z,48.70
2023-05-24T11:01:57.670Z,54.08
2023-05-24T11:04:26.368Z,46.17
2023-05-24T11:07:00.564Z,45.70
2023-05-24T11:09:29.782Z,43.92
2023-05-24T11:12:04.156Z,42.47
2023-05-24T11:14:33.118Z,44.40
2023-05-24T11:17:02.151Z,43.10
2023-05-24T11:19:34.073Z,42.05
2023-05-24T11:22:04.148Z,44.53
2023-05-24T11:24:32.548Z,43.78
2023-05-24T11:27:03.580Z,44.60
2023-05-24T11:29:32.397Z,46.33
2023-05-24T11:32:04.809Z,44.45
2023-05-24T11:34:34.236Z,45.28
2023-05-24T11:37:05.655Z,41.20
2023-05-24T11:39:35.465Z,42.47
2023-05-24T11:42:07.726Z,42.85
2023-05-24T11:44:38.452Z,43.95
2023-05-24T11:47:09.080Z,42.22
2023-05-24T11:49:37.385Z,38.38
2023-05-24T11:52:06.399Z,40.70
2023-05-24T11:54:35.074Z,45.17
2023-05-24T11:57:03.548Z,43.13
2023-05-24T11:59:35.762Z,37.45
2023-05-24T12:02:05.504Z,37.90
2023-05-24T12:04:34.564Z,34.50
2023-05-24T12:07:03.959Z,38.33
2023-05-24T12:09:32.768Z,36.88
2023-05-24T12:12:01.924Z,40.97
2023-05-24T12:14:31.653Z,45.10
2023-05-24T12:17:01.764Z,42.15
2023-05-24T12:19:34.406Z,53.08
2023-05-24T12:22:06.076Z,46.17
2023-05-24T12:24:34.489Z,53.90
2023-05-24T12:27:06.699Z,48.30
2023-05-24T12:29:36.598Z,55.03
2023-05-24T12:32:12.215Z,54.75
2023-05-24T12:34:43.477Z,46.45
2023-05-24T12:37:13.788Z,50.00
2023-05-24T12:39:44.216Z,42.47
2023-05-24T12:42:13.557Z,46.15
2023-05-24T12:44:42.368Z,48.58
2023-05-24T12:47:12.095Z,46.33
2023-05-24T12:49:40.870Z,46.15
2023-05-24T12:52:08.924Z,41.65
2023-05-24T12:54:37.552Z,51.70
2023-05-24T12:57:06.207Z,42.60
2023-05-24T12:59:34.904Z,43.97
2023-05-24T13:02:02.966Z,44.13
2023-05-24T13:04:33.800Z,41.45
2023-05-24T13:07:02.930Z,44.58
2023-05-24T13:09:31.584Z,40.85
2023-05-24T13:11:59.584Z,38.13
2023-05-24T13:14:28.009Z,41.20
2023-05-24T13:16:56.186Z,36.97
2023-05-24T13:19:24.565Z,31.02
2023-05-24T13:21:54.059Z,33.35
2023-05-24T13:24:23.278Z,34.13
2023-05-24T13:26:53.788Z,29.67
2023-05-24T13:29:36.568Z,35.10
2023-05-24T13:32:07.807Z,27.50
2023-05-24T13:34:36.294Z,32.00
2023-05-24T13:37:06.559Z,37.25
2023-05-24T13:39:35.280Z,31.77
2023-05-24T13:42:03.453Z,27.02
2023-05-24T13:44:32.311Z,28.67
2023-05-24T13:47:00.621Z,28.63
2023-05-24T13:49:29.859Z,39.03
2023-05-24T13:51:58.570Z,34.22
2023-05-24T13:54:28.402Z,26.38
2023-05-24T13:56:57.845Z,30.00
2023-05-24T13:59:27.040Z,29.60
2023-05-24T14:01:55.182Z,28.23
2023-05-24T14:04:23.647Z,28.52
2023-05-24T14:06:51.571Z,27.48
2023-05-24T14:09:21.210Z,29.48
2023-05-24T14:11:50.851Z,30.60
2023-05-24T14:16:52.043Z,32.88
2023-05-24T14:19:20.333Z,34.72
2023-05-24T14:21:48.282Z,35.25
2023-05-24T14:24:16.863Z,31.48
2023-05-24T14:26:47.336Z,31.98
2023-05-24T14:29:16.945Z,31.27
2023-05-24T14:31:44.941Z,31.15
2023-05-24T14:34:13.321Z,31.92
2023-05-24T14:36:41.732Z,31.15
2023-05-24T14:39:10.184Z,31.92
2023-05-24T14:41:38.206Z,32.35
2023-05-24T14:44:06.725Z,28.10
2023-05-24T14:46:36.324Z,62.33
2023-05-24T14:49:04.878Z,37.88
2023-05-24T14:51:32.866Z,84.28
2023-05-24T14:54:01.299Z,45.72
2023-05-24T14:56:29.634Z,37.55
2023-05-24T14:58:58.588Z,25.85
2023-05-24T15:01:27.202Z,31.60
2023-05-24T15:03:56.996Z,33.13
2023-05-24T15:06:25.088Z,29.70
2023-05-24T15:08:53.408Z,41.10
2023-05-24T15:11:22.950Z,27.20
2023-05-24T15:13:55.380Z,28.80
2023-05-24T15:18:51.480Z,25.52
2023-05-24T15:21:21.348Z,28.52
2023-05-24T15:23:49.821Z,31.48
2023-05-24T15:26:17.802Z,28.17
2023-05-24T15:28:46.039Z,26.52
2023-05-24T15:31:13.974Z,31.98
2023-05-24T15:33:42.283Z,26.92
2023-05-24T15:36:14.114Z,27.38
2023-05-24T15:38:43.913Z,35.47
2023-05-24T15:41:11.906Z,28.83
2023-05-24T15:43:40.165Z,32.28
2023-05-24T15:46:08.243Z,38.03
2023-05-24T15:48:36.503Z,33.17
2023-05-24T15:51:58.213Z,37.67
2023-05-24T15:53:56.478Z,38.38
2023-05-24T15:56:24.616Z,31.85
2023-05-24T15:58:52.852Z,42.67
2023-05-24T16:01:20.938Z,37.55
2023-05-24T16:03:49.510Z,33.88
2023-05-24T16:06:17.739Z,37.85
2023-05-24T16:08:46.169Z,43.03
2023-05-24T16:11:15.707Z,32.75
2023-05-24T16:13:44.120Z,37.40
2023-05-24T16:16:13.119Z,34.13
2023-05-24T16:18:41.584Z,31.05
2023-05-24T16:21:09.642Z,28.30
2023-05-24T16:23:37.911Z,34.63
2023-05-24T16:26:06.101Z,28.77
2023-05-24T16:28:36.024Z,43.85
2023-05-24T16:31:04.160Z,30.27
2023-05-24T16:33:32.731Z,49.85
2023-05-24T16:36:03.395Z,38.08
2023-05-24T16:38:32.218Z,29.15
2023-05-24T16:41:00.278Z,40.42
2023-05-24T16:43:28.864Z,30.83
2023-05-24T16:45:58.105Z,26.95
2023-05-24T16:48:28.588Z,27.45
2023-05-24T16:50:57.546Z,39.10
2023-05-24T16:53:26.770Z,27.40
2023-05-24T16:55:56.046Z,27.52
2023-05-24T16:58:26.180Z,28.88
2023-05-24T17:00:54.945Z,33.70
2023-05-24T17:03:28.329Z,38.40
2023-05-24T17:06:01.864Z,29.48
2023-05-24T17:08:30.692Z,31.83
2023-05-24T17:10:59.239Z,25.88
2023-05-24T17:13:28.264Z,31.80
2023-05-24T17:15:56.882Z,34.65
2023-05-24T17:18:29.932Z,30.92
2023-05-24T17:20:58.608Z,33.35
2023-05-24T17:23:27.012Z,26.25
2023-05-24T17:25:55.875Z,30.33
2023-05-24T17:28:27.220Z,27.58
2023-05-24T17:30:55.450Z,28.63
2023-05-24T17:33:26.312Z,33.50
2023-05-24T17:35:56.822Z,26.30
2023-05-24T17:38:25.924Z,28.33
2023-05-24T17:40:56.892Z,33.60
2023-05-24T17:43:28.653Z,32.03
2023-05-24T17:46:03.037Z,26.98
2023-05-24T17:48:33.227Z,35.75
2023-05-24T17:51:01.833Z,30.17
2023-05-24T17:53:32.177Z,30.50
2023-05-24T17:56:00.905Z,32.47
2023-05-24T17:58:30.732Z,30.15
2023-05-24T18:00:59.427Z,30.83
2023-05-24T18:03:27.576Z,30.63
2023-05-24T18:05:57.693Z,32.17
2023-05-24T18:08:26.271Z,28.85
2023-05-24T18:10:54.826Z,34.72
2023-05-24T18:13:23.030Z,34.10
2023-05-24T18:15:52.123Z,35.63
2023-05-24T18:18:20.609Z,38.45
2023-05-24T18:20:49.540Z,34.25
2023-05-24T18:23:19.467Z,35.97
2023-05-24T18:25:49.015Z,32.85
2023-05-24T18:28:17.263Z,37.60
2023-05-24T18:30:45.736Z,35.72
2023-05-24T18:33:13.761Z,34.58
2023-05-24T18:35:42.256Z,32.65
2023-05-24T18:38:10.603Z,40.50
2023-05-24T18:40:40.389Z,34.13
2023-05-24T18:43:08.965Z,41.42
2023-05-24T18:45:38.158Z,51.88
2023-05-24T18:48:07.913Z,36.88
2023-05-24T18:50:36.502Z,40.63
2023-05-24T18:53:04.613Z,81.97
2023-05-24T18:55:33.767Z,39.72
2023-05-24T18:58:03.728Z,40.63
2023-05-24T19:00:32.233Z,36.47
2023-05-24T19:03:00.926Z,45.55
2023-05-24T19:05:29.207Z,44.25
2023-05-24T19:07:57.451Z,41.45
2023-05-24T19:10:26.374Z,37.38
2023-05-24T19:12:54.511Z,34.22
2023-05-24T19:15:24.852Z,42.10
2023-05-24T19:17:55.585Z,41.90
2023-05-24T19:20:24.822Z,42.15
2023-05-24T19:22:53.184Z,40.67
2023-05-24T19:25:22.086Z,38.90
2023-05-24T19:27:59.256Z,40.20
2023-05-24T19:30:30.867Z,37.22
2023-05-24T19:32:59.541Z,40.63
2023-05-24T19:35:28.020Z,38.17
2023-05-24T19:37:55.952Z,43.05
2023-05-24T19:40:24.272Z,37.30
2023-05-24T19:42:52.777Z,35.10
2023-05-24T19:45:21.781Z,40.97
2023-05-24T19:47:51.704Z,35.75
2023-05-24T19:50:20.381Z,28.13
2023-05-24T19:52:48.550Z,35.83
2023-05-24T19:55:17.691Z,36.78
2023-05-24T19:57:45.985Z,33.30
2023-05-24T20:00:18.054Z,42.10
2023-05-24T20:02:46.743Z,38.38
2023-05-24T20:05:17.730Z,30.95
2023-05-24T20:07:46.133Z,37.17
2023-05-24T20:10:15.217Z,37.08
2023-05-24T20:12:43.541Z,39.80
2023-05-24T20:15:17.103Z,34.60
2023-05-24T20:17:46.442Z,34.67
2023-05-24T20:20:15.189Z,40.85
2023-05-24T20:22:44.654Z,34.63
2023-05-24T20:25:13.412Z,36.85
2023-05-24T20:27:42.230Z,37.33
2023-05-24T20:30:11.696Z,34.78
2023-05-24T20:32:39.929Z,36.90
2023-05-24T20:35:09.680Z,40.35
2023-05-24T20:37:38.310Z,37.50
2023-05-24T20:40:09.627Z,37.42
2023-05-24T20:42:37.672Z,41.27
2023-05-24T20:45:07.068Z,39.22
2023-05-24T20:47:35.054Z,43.83
2023-05-24T20:50:03.952Z,39.92
2023-05-24T20:52:32.474Z,41.47
2023-05-24T20:55:00.646Z,40.30
2023-05-24T20:57:29.903Z,39.80
2023-05-24T20:59:58.110Z,40.67
2023-05-24T21:02:28.316Z,36.92
2023-05-24T21:04:56.828Z,40.72
2023-05-24T21:07:24.901Z,43.70
2023-05-24T21:09:53.973Z,43.95
2023-05-24T21:12:21.969Z,39.97
2023-05-24T21:14:53.617Z,37.40
2023-05-24T21:17:21.674Z,41.38
2023-05-24T21:19:49.891Z,37.80
2023-05-24T21:22:17.801Z,38.88
2023-05-24T21:24:46.237Z,43.25
2023-05-24T21:27:14.192Z,42.00
2023-05-24T21:29:42.423Z,39.13
2023-05-24T21:32:11.666Z,40.85
2023-05-24T21:34:39.882Z,41.33
2023-05-24T21:37:08.346Z,40.88
2023-05-24T21:39:36.602Z,45.65
2023-05-24T21:42:04.844Z,35.78
2023-05-24T21:44:33.194Z,42.55
2023-05-24T21:47:01.221Z,34.03
2023-05-24T21:49:30.843Z,39.30
2023-05-24T21:51:58.841Z,41.97
2023-05-24T21:54:27.040Z,38.33
2023-05-24T21:56:54.933Z,37.20
2023-05-24T21:59:23.242Z,42.70
2023-05-24T22:01:51.906Z,38.90
2023-05-24T22:04:20.149Z,36.75
2023-05-24T22:06:49.515Z,42.97
2023-05-24T22:09:17.768Z,39.78
2023-05-24T22:11:45.720Z,42.60
2023-05-24T22:14:14.159Z,39.25
2023-05-24T22:16:42.250Z,42.10
2023-05-24T22:19:16.306Z,41.63
2023-05-24T22:21:45.810Z,45.65
2023-05-24T22:24:15.355Z,43.03
2023-05-24T22:26:47.094Z,36.80
2023-05-24T22:29:15.970Z,50.13
2023-05-24T22:31:43.899Z,36.63
2023-05-24T22:34:12.379Z,39.33
2023-05-24T22:36:40.904Z,40.53
2023-05-24T22:39:09.076Z,46.22
2023-05-24T22:41:38.357Z,41.13
2023-05-24T22:44:06.781Z,47.75
2023-05-24T22:46:34.807Z,50.08
2023-05-24T22:49:05.609Z,47.60
2023-05-24T22:51:33.711Z,43.13
2023-05-24T22:54:01.877Z,40.33
2023-05-24T22:56:32.183Z,37.60
2023-05-24T22:59:01.891Z,43.70
2023-05-24T23:01:30.064Z,40.78
2023-05-24T23:04:11.611Z,48.28
2023-05-24T23:06:46.492Z,42.80
2023-05-24T23:09:14.759Z,34.60
2023-05-24T23:11:42.696Z,42.17
2023-05-24T23:14:12.482Z,40.90
2023-05-24T23:16:45.400Z,40.60
2023-05-24T23:19:18.582Z,43.50
2023-05-24T23:21:47.436Z,48.58
2023-05-24T23:24:15.707Z,39.05
2023-05-24T23:26:43.811Z,42.55
2023-05-24T23:29:13.650Z,43.53
2023-05-24T23:31:41.718Z,45.08
2023-05-24T23:34:10.288Z,49.10
2023-05-24T23:36:38.206Z,41.35
2023-05-24T23:39:06.387Z,44.30
2023-05-24T23:41:34.308Z,45.90
2023-05-24T23:44:02.583Z,51.85
2023-05-24T23:46:31.861Z,46.22
2023-05-24T23:49:00.957Z,43.63
2023-05-24T23:51:33.437Z,51.83
2023-05-24T23:54:02.040Z,45.40
2023-05-24T23:56:29.953Z,44.83
2023-05-24T23:58:58.190Z,40.88
